createdAt,value
2023-01-02T00:00:57.594Z,0.50
2023-01-02T00:03:25.091Z,0.47
2023-01-02T00:05:52.592Z,0.50
2023-01-02T00:08:19.917Z,0.30
2023-01-02T00:10:47.176Z,0.40
2023-01-02T00:13:14.873Z,0.30
2023-01-02T00:15:42.288Z,0.50
2023-01-02T00:18:09.614Z,0.30
2023-01-02T00:20:36.951Z,0.50
2023-01-02T00:23:04.374Z,0.50
2023-01-02T00:25:34.921Z,0.37
2023-01-02T00:28:03.019Z,0.40
2023-01-02T00:30:37.631Z,0.30
2023-01-02T00:33:06.324Z,0.30
2023-01-02T00:35:34.184Z,0.60
2023-01-02T00:38:01.487Z,0.43
2023-01-02T00:40:28.904Z,0.33
2023-01-02T00:42:59.015Z,0.40
2023-01-02T00:45:26.299Z,0.30
2023-01-02T00:47:53.662Z,0.33
2023-01-02T00:50:21.253Z,0.33
2023-01-02T00:52:48.608Z,0.33
2023-01-02T00:55:15.932Z,0.40
2023-01-02T00:57:43.267Z,0.40
2023-01-02T01:00:10.827Z,0.30
2023-01-02T01:02:38.256Z,0.40
2023-01-02T01:05:06.016Z,0.23
2023-01-02T01:07:33.366Z,0.30
2023-01-02T01:10:00.764Z,0.30
2023-01-02T01:12:28.045Z,0.20
2023-01-02T01:14:59.488Z,0.20
2023-01-02T01:17:26.857Z,0.20
2023-01-02T01:19:54.241Z,0.40
2023-01-02T01:22:21.604Z,0.30
2023-01-02T01:24:49.038Z,0.30
2023-01-02T01:27:16.546Z,0.20
2023-01-02T01:29:43.892Z,0.27
2023-01-02T01:32:11.232Z,0.20
2023-01-02T01:34:38.581Z,0.20
2023-01-02T01:37:06.013Z,0.40
2023-01-02T01:39:33.348Z,0.20
2023-01-02T01:42:01.240Z,0.30
2023-01-02T01:44:47.517Z,0.20
2023-01-02T01:47:17.537Z,0.37
2023-01-02T01:49:45.802Z,0.27
2023-01-02T01:52:15.793Z,0.20
2023-01-02T01:54:45.414Z,0.40
2023-01-02T01:57:23.378Z,0.30
2023-01-02T01:59:50.994Z,0.30
2023-01-02T02:02:18.614Z,0.30
2023-01-02T02:04:46.196Z,0.23
2023-01-02T02:07:14.016Z,0.30
2023-01-02T02:09:48.262Z,0.40
2023-01-02T02:12:19.683Z,0.23
2023-01-02T02:14:49.053Z,0.23
2023-01-02T02:17:35.285Z,0.20
2023-01-02T02:20:08.646Z,0.20
2023-01-02T02:22:41.776Z,0.30
2023-01-02T02:25:09.124Z,0.30
2023-01-02T02:27:36.448Z,0.30
2023-01-02T02:30:14.142Z,0.30
2023-01-02T02:33:00.403Z,0.27
2023-01-02T02:36:06.370Z,0.30
2023-01-02T02:38:36.717Z,0.10
2023-01-02T02:41:04.062Z,0.20
2023-01-02T02:43:41.627Z,0.10
2023-01-02T02:46:14.081Z,0.20
2023-01-02T02:48:59.545Z,0.20
2023-01-02T02:51:27.093Z,0.17
2023-01-02T02:54:00.672Z,0.20
2023-01-02T02:56:29.410Z,0.30
2023-01-02T02:58:57.227Z,0.30
2023-01-02T03:01:30.207Z,0.20
2023-01-02T03:03:58.706Z,0.20
2023-01-02T03:06:36.829Z,0.50
2023-01-02T03:09:12.185Z,0.17
2023-01-02T03:11:57.988Z,0.30
2023-01-02T03:14:34.117Z,0.20
2023-01-02T03:17:06.706Z,0.37
2023-01-02T03:19:33.991Z,0.30
2023-01-02T03:22:08.064Z,0.27
2023-01-02T03:24:36.070Z,0.30
2023-01-02T03:27:05.758Z,0.50
2023-01-02T03:29:35.848Z,0.30
2023-01-02T03:32:05.897Z,0.30
2023-01-02T03:34:35.245Z,0.30
2023-01-02T03:37:09.423Z,0.30
2023-01-02T03:39:40.338Z,0.20
2023-01-02T03:42:11.214Z,0.30
2023-01-02T03:44:42.712Z,0.20
2023-01-02T03:47:18.302Z,0.17
2023-01-02T03:49:50.219Z,0.30
2023-01-02T03:52:21.167Z,0.20
2023-01-02T03:54:53.284Z,0.10
2023-01-02T03:57:26.092Z,0.17
2023-01-02T03:59:53.341Z,0.20
2023-01-02T04:02:26.862Z,0.30
2023-01-02T04:04:54.330Z,0.20
2023-01-02T04:07:28.044Z,0.10
2023-01-02T04:09:55.999Z,0.20
2023-01-02T04:12:24.608Z,0.27
2023-01-02T04:14:53.782Z,0.10
2023-01-02T04:17:22.893Z,0.20
2023-01-02T04:19:50.136Z,0.20
2023-01-02T04:22:28.744Z,0.23
2023-01-02T04:24:58.181Z,0.17
2023-01-02T04:27:28.253Z,0.20
2023-01-02T04:29:56.175Z,0.30
2023-01-02T04:32:28.574Z,0.20
2023-01-02T04:34:56.650Z,0.20
2023-01-02T04:37:42.843Z,0.20
2023-01-02T04:40:16.306Z,0.20
2023-01-02T04:42:43.617Z,0.30
2023-01-02T04:45:11.151Z,0.10
2023-01-02T04:47:38.413Z,0.13
2023-01-02T04:50:06.453Z,0.20
2023-01-02T04:52:37.365Z,0.17
2023-01-02T04:55:05.832Z,0.10
2023-01-02T04:57:33.131Z,0.20
2023-01-02T05:00:00.672Z,0.10
2023-01-02T05:02:28.382Z,0.40
2023-01-02T05:04:55.907Z,0.40
2023-01-02T05:07:23.191Z,0.20
2023-01-02T05:09:50.575Z,0.10
2023-01-02T05:12:17.891Z,0.30
2023-01-02T05:14:45.264Z,0.20
2023-01-02T05:17:12.569Z,0.37
2023-01-02T05:19:39.867Z,0.30
2023-01-02T05:22:25.746Z,0.20
2023-01-02T05:24:53.173Z,0.27
2023-01-02T05:27:20.453Z,0.20
2023-01-02T05:29:47.813Z,0.20
2023-01-02T05:32:15.136Z,0.30
2023-01-02T05:34:42.451Z,0.30
2023-01-02T05:37:09.809Z,0.30
2023-01-02T05:39:37.251Z,0.60
2023-01-02T05:42:04.714Z,0.37
2023-01-02T05:44:32.056Z,0.30
2023-01-02T05:46:59.415Z,0.47
2023-01-02T05:49:26.807Z,0.20
2023-01-02T05:51:54.149Z,0.43
2023-01-02T05:54:21.565Z,0.37
2023-01-02T05:56:49.000Z,0.20
2023-01-02T05:59:16.742Z,0.53
2023-01-02T06:01:44.283Z,0.20
2023-01-02T06:04:16.085Z,0.30
2023-01-02T06:06:47.225Z,0.33
2023-01-02T06:09:15.825Z,0.40
2023-01-02T06:11:43.608Z,0.60
2023-01-02T06:14:10.924Z,0.73
2023-01-02T06:16:39.307Z,0.70
2023-01-02T06:19:09.773Z,0.50
2023-01-02T06:21:37.126Z,0.50
2023-01-02T06:24:04.612Z,0.33
2023-01-02T06:26:35.164Z,0.30
2023-01-02T06:29:02.930Z,0.50
2023-01-02T06:31:30.447Z,1.37
2023-01-02T06:33:58.897Z,1.30
2023-01-02T06:36:27.132Z,0.60
2023-01-02T06:38:54.460Z,0.60
2023-01-02T06:41:21.829Z,0.50
2023-01-02T06:43:49.833Z,0.33
2023-01-02T06:46:18.061Z,0.20
2023-01-02T06:48:45.844Z,0.40
2023-01-02T06:51:14.474Z,0.60
2023-01-02T06:53:42.338Z,0.63
2023-01-02T06:56:10.245Z,0.73
2023-01-02T06:58:38.719Z,0.57
2023-01-02T07:01:07.765Z,0.50
2023-01-02T07:03:35.201Z,0.40
2023-01-02T07:06:03.168Z,0.53
2023-01-02T07:08:30.957Z,0.50
2023-01-02T07:11:18.505Z,1.27
2023-01-02T07:13:46.408Z,0.90
2023-01-02T07:16:15.262Z,0.57
2023-01-02T07:18:43.411Z,0.40
2023-01-02T07:21:11.488Z,0.70
2023-01-02T07:23:38.881Z,2.53
2023-01-02T07:26:06.947Z,1.80
2023-01-02T07:28:35.030Z,0.90
2023-01-02T07:31:03.646Z,0.60
2023-01-02T07:33:31.615Z,0.80
2023-01-02T07:35:59.581Z,0.60
2023-01-02T07:38:27.051Z,0.60
2023-01-02T07:40:54.409Z,0.50
2023-01-02T07:43:22.375Z,0.60
2023-01-02T07:45:50.849Z,0.57
2023-01-02T07:48:19.013Z,0.80
2023-01-02T07:50:46.662Z,0.70
2023-01-02T07:53:14.132Z,0.83
2023-01-02T07:55:41.525Z,0.83
2023-01-02T07:58:08.885Z,1.00
2023-01-02T08:00:36.182Z,2.33
2023-01-02T08:03:03.448Z,1.10
2023-01-02T08:05:30.810Z,1.00
2023-01-02T08:07:58.420Z,0.70
2023-01-02T08:10:25.902Z,0.90
2023-01-02T08:12:53.367Z,1.10
2023-01-02T08:15:20.842Z,1.20
2023-01-02T08:17:48.286Z,1.20
2023-01-02T08:20:15.653Z,1.00
2023-01-02T08:22:42.954Z,1.10
2023-01-02T08:25:10.701Z,1.30
2023-01-02T08:27:38.008Z,1.47
2023-01-02T08:30:05.571Z,3.23
2023-01-02T08:32:36.353Z,1.70
2023-01-02T08:35:04.099Z,1.37
2023-01-02T08:37:31.514Z,1.23
2023-01-02T08:39:58.870Z,2.10
2023-01-02T08:42:26.321Z,1.40
2023-01-02T08:44:54.052Z,1.73
2023-01-02T08:47:21.316Z,2.70
2023-01-02T08:49:48.646Z,1.70
2023-01-02T08:52:15.965Z,1.43
2023-01-02T08:54:43.328Z,0.80
2023-01-02T08:57:10.640Z,1.30
2023-01-02T08:59:37.956Z,1.57
2023-01-02T09:02:05.447Z,0.90
2023-01-02T09:04:32.945Z,1.03
2023-01-02T09:07:00.336Z,0.67
2023-01-02T09:09:27.810Z,1.50
2023-01-02T09:11:55.136Z,1.93
2023-01-02T09:14:22.941Z,2.03
2023-01-02T09:16:50.807Z,1.57
2023-01-02T09:19:18.324Z,1.47
2023-01-02T09:21:45.903Z,1.80
2023-01-02T09:24:13.326Z,2.03
2023-01-02T09:26:44.077Z,0.90
2023-01-02T09:29:11.817Z,1.10
2023-01-02T09:31:39.858Z,1.23
2023-01-02T09:34:07.620Z,1.10
2023-01-02T09:36:35.110Z,0.70
2023-01-02T09:39:02.958Z,1.20
2023-01-02T09:41:36.515Z,0.70
2023-01-02T09:44:22.438Z,1.90
2023-01-02T09:46:49.876Z,2.20
2023-01-02T09:49:19.361Z,1.67
2023-01-02T09:51:47.156Z,1.23
2023-01-02T09:54:22.875Z,0.87
2023-01-02T09:56:53.108Z,0.90
2023-01-02T09:59:32.794Z,1.40
2023-01-02T10:02:03.633Z,2.20
2023-01-02T10:04:41.575Z,1.67
2023-01-02T10:07:22.214Z,1.57
2023-01-02T10:09:58.896Z,1.90
2023-01-02T10:12:31.313Z,2.23
2023-01-02T10:15:03.135Z,2.00
2023-01-02T10:17:33.768Z,1.70
2023-01-02T10:20:23.873Z,1.67
2023-01-02T10:22:53.909Z,2.13
2023-01-02T10:25:24.308Z,2.60
2023-01-02T10:27:58.047Z,1.70
2023-01-02T10:30:26.657Z,1.57
2023-01-02T10:32:58.139Z,1.73
2023-01-02T10:35:58.097Z,1.50
2023-01-02T10:38:27.248Z,1.50
2023-01-02T10:40:54.617Z,2.00
2023-01-02T10:43:21.932Z,0.97
2023-01-02T10:45:49.289Z,1.60
2023-01-02T10:48:16.592Z,1.83
2023-01-02T10:50:55.324Z,2.57
2023-01-02T10:53:33.424Z,4.10
2023-01-02T10:56:04.573Z,2.10
2023-01-02T10:58:33.696Z,1.63
2023-01-02T11:01:05.950Z,1.20
2023-01-02T11:03:33.521Z,1.27
2023-01-02T11:06:27.039Z,1.13
2023-01-02T11:08:58.325Z,1.57
2023-01-02T11:11:27.042Z,1.80
2023-01-02T11:13:55.994Z,1.37
2023-01-02T11:16:24.931Z,1.40
2023-01-02T11:18:56.606Z,1.50
2023-01-02T11:21:28.081Z,1.30
2023-01-02T11:24:02.811Z,1.23
2023-01-02T11:26:30.533Z,0.80
2023-01-02T11:29:04.772Z,0.30
2023-01-02T11:31:33.018Z,0.30
2023-01-02T11:34:10.961Z,0.37
2023-01-02T11:36:38.326Z,1.40
2023-01-02T11:39:23.034Z,1.57
2023-01-02T11:42:09.148Z,2.63
2023-01-02T11:44:39.475Z,0.37
2023-01-02T11:47:09.907Z,1.50
2023-01-02T11:49:44.716Z,2.13
2023-01-02T11:52:20.645Z,0.37
2023-01-02T11:54:53.587Z,0.23
2023-01-02T11:57:30.003Z,0.20
2023-01-02T11:59:59.516Z,0.43
2023-01-02T12:02:53.305Z,0.90
2023-01-02T12:05:25.936Z,1.10
2023-01-02T12:08:01.408Z,0.60
2023-01-02T12:10:49.019Z,0.20
2023-01-02T12:13:19.414Z,0.23
2023-01-02T12:15:46.841Z,0.20
2023-01-02T12:18:20.308Z,0.20
2023-01-02T12:20:55.514Z,0.30
2023-01-02T12:23:27.725Z,0.37
2023-01-02T12:25:58.192Z,0.30
2023-01-02T12:28:44.360Z,0.30
2023-01-02T12:31:20.704Z,0.20
2023-01-02T12:34:10.446Z,0.20
2023-01-02T12:36:37.820Z,0.20
2023-01-02T12:39:28.180Z,0.20
2023-01-02T12:42:12.690Z,0.43
2023-01-02T12:44:48.996Z,0.40
2023-01-02T12:47:25.377Z,0.70
2023-01-02T12:50:11.273Z,1.80
2023-01-02T12:53:04.291Z,0.67
2023-01-02T12:55:37.531Z,0.90
2023-01-02T12:58:07.607Z,0.60
2023-01-02T13:00:37.872Z,1.07
2023-01-02T13:03:23.512Z,0.83
2023-01-02T13:05:56.023Z,1.30
2023-01-02T13:08:23.609Z,1.40
2023-01-02T13:10:51.521Z,1.20
2023-01-02T13:13:19.214Z,1.33
2023-01-02T13:15:48.777Z,1.17
2023-01-02T13:18:27.726Z,1.00
2023-01-02T13:20:55.014Z,1.03
2023-01-02T13:23:28.541Z,1.10
2023-01-02T13:26:00.522Z,1.63
2023-01-02T13:28:27.908Z,1.47
2023-01-02T13:31:26.614Z,1.50
2023-01-02T13:33:54.731Z,2.07
2023-01-02T13:36:26.755Z,1.30
2023-01-02T13:38:58.667Z,0.80
2023-01-02T13:41:26.255Z,1.73
2023-01-02T13:43:55.727Z,0.50
2023-01-02T13:47:02.901Z,0.40
2023-01-02T13:49:25.121Z,2.13
2023-01-02T13:52:00.094Z,2.93
2023-01-02T13:54:35.330Z,2.20
2023-01-02T13:57:25.149Z,2.50
2023-01-02T14:00:00.140Z,2.43
2023-01-02T14:02:27.948Z,4.50
2023-01-02T14:04:55.601Z,4.07
2023-01-02T14:07:26.022Z,3.73
2023-01-02T14:10:05.444Z,2.77
2023-01-02T14:12:40.680Z,1.80
2023-01-02T14:15:19.424Z,1.13
2023-01-02T14:17:57.727Z,1.30
2023-01-02T14:20:29.193Z,1.57
2023-01-02T14:23:03.632Z,1.70
2023-01-02T14:25:32.517Z,1.43
2023-01-02T14:28:08.672Z,1.10
2023-01-02T14:30:40.391Z,0.90
2023-01-02T14:33:09.795Z,0.93
2023-01-02T14:35:41.943Z,0.70
2023-01-02T14:38:09.352Z,0.47
2023-01-02T14:40:39.271Z,0.60
2023-01-02T14:43:31.546Z,0.57
2023-01-02T14:46:05.112Z,0.40
2023-01-02T14:48:35.431Z,1.00
2023-01-02T14:51:04.647Z,0.87
2023-01-02T14:53:38.152Z,0.80
2023-01-02T14:56:14.681Z,0.80
2023-01-02T14:58:46.664Z,0.90
2023-01-02T15:01:42.921Z,3.37
2023-01-02T15:04:12.510Z,2.43
2023-01-02T15:06:45.663Z,1.30
2023-01-02T15:09:13.359Z,1.23
2023-01-02T15:12:10.923Z,1.23
2023-01-02T15:14:39.879Z,1.00
2023-01-02T15:17:08.888Z,0.70
2023-01-02T15:19:42.426Z,0.80
2023-01-02T15:22:14.290Z,0.60
2023-01-02T15:24:47.762Z,0.87
2023-01-02T15:27:22.534Z,1.43
2023-01-02T15:29:52.567Z,1.50
2023-01-02T15:32:24.348Z,0.90
2023-01-02T15:34:51.837Z,0.83
2023-01-02T15:37:20.248Z,0.70
2023-01-02T15:39:54.112Z,0.90
2023-01-02T15:42:41.981Z,0.73
2023-01-02T15:45:15.133Z,0.50
2023-01-02T15:47:46.425Z,0.80
2023-01-02T15:50:18.796Z,0.40
2023-01-02T15:52:47.328Z,0.33
2023-01-02T15:55:16.202Z,0.40
2023-01-02T15:57:47.646Z,0.90
2023-01-02T16:00:36.242Z,0.70
2023-01-02T16:03:04.642Z,0.40
2023-01-02T16:41:48.372Z,0.80
2023-01-02T16:44:17.164Z,1.10
2023-01-02T16:46:45.727Z,1.57
2023-01-02T16:49:15.287Z,0.97
2023-01-02T16:51:45.250Z,0.70
2023-01-02T16:54:13.645Z,0.70
2023-01-02T16:56:40.926Z,2.00
2023-01-02T16:59:08.340Z,2.13
2023-01-02T17:01:35.863Z,2.07
2023-01-02T17:04:03.321Z,2.60
2023-01-02T17:06:32.597Z,2.53
2023-01-02T17:08:59.882Z,2.70
2023-01-02T17:11:27.330Z,7.80
2023-01-02T17:13:54.681Z,4.93
2023-01-02T17:16:21.983Z,1.80
2023-01-02T17:18:49.336Z,1.60
2023-01-02T17:21:16.739Z,1.33
2023-01-02T17:23:44.050Z,1.40
2023-01-02T17:26:11.327Z,1.63
2023-01-02T17:28:38.889Z,3.30
2023-01-02T17:31:06.292Z,2.90
2023-01-02T17:33:33.617Z,4.43
2023-01-02T17:36:00.980Z,2.77
2023-01-02T17:38:28.293Z,2.87
2023-01-02T17:40:59.150Z,2.80
2023-01-02T17:43:26.698Z,2.97
2023-01-02T17:45:54.452Z,2.93
2023-01-02T17:48:24.841Z,2.73
2023-01-02T17:50:53.357Z,2.30
2023-01-02T17:53:21.023Z,1.67
2023-01-02T17:56:20.456Z,1.33
2023-01-02T17:58:40.048Z,1.80
2023-01-02T18:01:07.403Z,2.10
2023-01-02T18:03:34.815Z,2.60
2023-01-02T18:06:06.087Z,2.60
2023-01-02T18:08:34.279Z,2.87
2023-01-02T18:11:04.963Z,2.67
2023-01-02T18:13:33.843Z,2.60
2023-01-02T18:16:02.159Z,2.77
2023-01-02T18:18:30.914Z,2.37
2023-01-02T18:20:58.253Z,2.17
2023-01-02T18:23:26.442Z,2.50
2023-01-02T18:25:53.742Z,2.13
2023-01-02T18:28:22.929Z,2.80
2023-01-02T18:30:52.823Z,2.37
2023-01-02T18:33:21.367Z,2.80
2023-01-02T18:35:59.806Z,2.30
2023-01-02T18:38:33.523Z,2.33
2023-01-02T18:41:01.211Z,2.47
2023-01-02T18:43:30.003Z,2.97
2023-01-02T18:45:59.047Z,3.23
2023-01-02T18:48:26.884Z,4.67
2023-01-02T18:51:01.593Z,2.97
2023-01-02T18:53:36.721Z,2.00
2023-01-02T18:56:12.247Z,1.80
2023-01-02T18:58:44.077Z,1.90
2023-01-02T19:01:25.656Z,1.93
2023-01-02T19:03:56.967Z,2.13
2023-01-02T19:06:26.849Z,2.50
2023-01-02T19:08:54.737Z,2.10
2023-01-02T19:12:04.435Z,2.30
2023-01-02T19:14:38.602Z,3.03
2023-01-02T19:17:14.195Z,2.57
2023-01-02T19:19:41.524Z,2.20
2023-01-02T19:22:13.555Z,2.27
2023-01-02T19:24:40.987Z,3.03
2023-01-02T19:27:22.193Z,3.10
2023-01-02T19:29:49.986Z,3.33
2023-01-02T19:32:19.909Z,4.60
2023-01-02T19:34:50.945Z,3.67
2023-01-02T19:37:18.213Z,3.17
2023-01-02T19:39:48.437Z,3.10
2023-01-02T19:42:22.108Z,2.40
2023-01-02T19:44:54.023Z,2.33
2023-01-02T19:47:22.863Z,3.10
2023-01-02T19:49:51.308Z,2.10
2023-01-02T19:52:19.712Z,2.10
2023-01-02T19:54:47.789Z,2.60
2023-01-02T19:57:19.742Z,2.67
2023-01-02T19:59:51.852Z,2.63
2023-01-02T20:02:21.076Z,2.57
2023-01-02T20:04:50.292Z,2.93
2023-01-02T20:07:17.797Z,3.20
2023-01-02T20:09:45.812Z,2.73
2023-01-02T20:12:34.598Z,2.37
2023-01-02T20:15:02.093Z,1.77
2023-01-02T20:17:29.483Z,2.13
2023-01-02T20:19:57.271Z,2.00
2023-01-02T20:22:25.184Z,2.17
2023-01-02T20:24:53.229Z,2.20
2023-01-02T20:27:24.245Z,2.00
2023-01-02T20:29:54.049Z,2.97
2023-01-02T20:32:21.934Z,3.20
2023-01-02T20:34:50.865Z,2.57
2023-01-02T20:37:21.331Z,2.63
2023-01-02T20:39:50.042Z,2.40
2023-01-02T20:42:17.886Z,1.80
2023-01-02T20:44:45.421Z,1.97
2023-01-02T20:47:13.154Z,2.77
2023-01-02T20:49:41.327Z,2.80
2023-01-02T20:52:09.059Z,3.50
2023-01-02T20:54:39.471Z,2.40
2023-01-02T20:57:06.789Z,1.90
2023-01-02T20:59:34.239Z,2.07
2023-01-02T21:02:01.837Z,2.00
2023-01-02T21:04:36.224Z,2.03
2023-01-02T21:07:04.730Z,2.00
2023-01-02T21:09:32.131Z,1.37
2023-01-02T21:11:59.449Z,1.50
2023-01-02T21:14:28.289Z,1.40
2023-01-02T21:16:58.685Z,2.67
2023-01-02T21:19:26.103Z,2.60
2023-01-02T21:21:53.487Z,2.10
2023-01-02T21:24:20.929Z,1.97
2023-01-02T21:26:48.505Z,1.80
2023-01-02T21:29:15.775Z,1.67
2023-01-02T21:31:43.131Z,1.53
2023-01-02T21:34:11.897Z,1.43
2023-01-02T21:36:39.291Z,1.20
2023-01-02T21:39:06.849Z,1.40
2023-01-02T21:41:52.932Z,1.33
2023-01-02T21:44:20.286Z,1.70
2023-01-02T21:46:47.691Z,1.90
2023-01-02T21:49:15.394Z,1.60
2023-01-02T21:51:42.769Z,1.60
2023-01-02T21:54:10.088Z,1.40
2023-01-02T21:56:37.453Z,1.57
2023-01-02T21:59:04.782Z,1.50
2023-01-02T22:01:32.292Z,1.70
2023-01-02T22:03:59.850Z,2.10
2023-01-02T22:06:34.090Z,2.27
2023-01-02T22:09:01.985Z,1.80
2023-01-02T22:11:47.894Z,1.40
2023-01-02T22:14:15.137Z,1.57
2023-01-02T22:16:45.417Z,1.40
2023-01-02T22:19:13.030Z,1.30
2023-01-02T22:21:40.380Z,1.47
2023-01-02T22:24:07.892Z,1.53
2023-01-02T22:26:36.328Z,1.40
2023-01-02T22:29:03.732Z,1.47
2023-01-02T22:31:31.387Z,1.20
2023-01-02T22:33:59.273Z,1.20
2023-01-02T22:36:31.318Z,1.10
2023-01-02T22:39:26.689Z,1.00
2023-01-02T22:41:49.251Z,1.00
2023-01-02T22:44:23.644Z,1.03
2023-01-02T22:46:52.755Z,1.03
2023-01-02T22:49:25.411Z,0.87
2023-01-02T22:52:09.366Z,1.00
2023-01-02T22:54:37.779Z,1.13
2023-01-02T22:57:12.175Z,1.10
2023-01-02T22:59:40.353Z,1.20
2023-01-02T23:02:16.043Z,1.20
2023-01-02T23:04:46.985Z,1.30
2023-01-02T23:07:24.440Z,1.10
2023-01-02T23:09:52.202Z,1.10
2023-01-02T23:12:19.654Z,1.00
2023-01-02T23:14:46.943Z,1.10
2023-01-02T23:17:33.085Z,1.07
2023-01-02T23:20:00.457Z,0.90
2023-01-02T23:22:27.777Z,0.77
2023-01-02T23:24:55.130Z,1.00
2023-01-02T23:27:22.534Z,0.80
2023-01-02T23:29:50.034Z,0.90
2023-01-02T23:32:17.457Z,0.67
2023-01-02T23:34:45.498Z,0.90
2023-01-02T23:37:12.862Z,1.00
2023-01-02T23:39:40.248Z,0.80
2023-01-02T23:42:07.761Z,0.93
2023-01-02T23:44:35.324Z,0.90
2023-01-02T23:47:08.627Z,0.90
2023-01-02T23:49:37.428Z,0.90
2023-01-02T23:52:05.040Z,0.80
2023-01-02T23:54:32.555Z,0.80
2023-01-02T23:56:59.890Z,0.70
2023-01-02T23:59:27.482Z,1.00
